sensor_id;sensor_type;location;lat;lon;timestamp;pressure;altitude;pressure_sealevel;temperature
77355;BMP280;66422;51.202;19.936;2023-08-01T00:11:13;98620.86;;;16.57
77355;BMP280;66422;51.202;19.936;2023-08-01T00:26:34;98600.81;;;16.74
77355;BMP280;66422;51.202;19.936;2023-08-01T00:41:53;98580.39;;;16.84
77355;BMP280;66422;51.202;19.936;2023-08-01T00:57:14;98573.91;;;17.23
77355;BMP280;66422;51.202;19.936;2023-08-01T01:12:33;98554.68;;;17.36
77355;BMP280;66422;51.202;19.936;2023-08-01T01:27:54;98537.26;;;17.56
77355;BMP280;66422;51.202;19.936;2023-08-01T01:43:13;98513.07;;;17.58
77355;BMP280;66422;51.202;19.936;2023-08-01T01:58:33;98479.64;;;17.53
77355;BMP280;66422;51.202;19.936;2023-08-01T02:13:53;98441.24;;;16.99
77355;BMP280;66422;51.202;19.936;2023-08-01T02:29:13;98434.16;;;16.78
77355;BMP280;66422;51.202;19.936;2023-08-01T02:44:33;98426.67;;;16.82
77355;BMP280;66422;51.202;19.936;2023-08-01T02:59:53;98408.35;;;16.62
77355;BMP280;66422;51.202;19.936;2023-08-01T03:15:13;98379.08;;;16.61
77355;BMP280;66422;51.202;19.936;2023-08-01T03:30:33;98371.75;;;16.72
77355;BMP280;66422;51.202;19.936;2023-08-01T03:45:53;98355.02;;;16.74
77355;BMP280;66422;51.202;19.936;2023-08-01T04:01:15;98347.06;;;17.37
77355;BMP280;66422;51.202;19.936;2023-08-01T04:16:34;98338.23;;;17.67
77355;BMP280;66422;51.202;19.936;2023-08-01T04:31:54;98326.55;;;18.06
77355;BMP280;66422;51.202;19.936;2023-08-01T04:47:14;98313.55;;;18.51
77355;BMP280;66422;51.202;19.936;2023-08-01T05:02:34;98316.36;;;18.95
77355;BMP280;66422;51.202;19.936;2023-08-01T05:17:53;98306.70;;;19.93
77355;BMP280;66422;51.202;19.936;2023-08-01T05:33:14;98288.00;;;20.32
77355;BMP280;66422;51.202;19.936;2023-08-01T05:48:34;98282.83;;;20.48
77355;BMP280;66422;51.202;19.936;2023-08-01T06:03:53;98282.09;;;22.71
77355;BMP280;66422;51.202;19.936;2023-08-01T06:19:13;98264.98;;;22.96
77355;BMP280;66422;51.202;19.936;2023-08-01T06:34:33;98249.87;;;22.68
77355;BMP280;66422;51.202;19.936;2023-08-01T06:49:52;98243.02;;;22.60
77355;BMP280;66422;51.202;19.936;2023-08-01T07:05:12;98239.30;;;22.70
77355;BMP280;66422;51.202;19.936;2023-08-01T07:20:31;98240.53;;;23.53
77355;BMP280;66422;51.202;19.936;2023-08-01T07:35:51;98238.28;;;23.87
77355;BMP280;66422;51.202;19.936;2023-08-01T07:51:10;98220.63;;;23.71
77355;BMP280;66422;51.202;19.936;2023-08-01T08:06:31;98220.36;;;23.58
77355;BMP280;66422;51.202;19.936;2023-08-01T08:21:50;98201.59;;;23.65
77355;BMP280;66422;51.202;19.936;2023-08-01T08:37:13;98193.02;;;23.35
77355;BMP280;66422;51.202;19.936;2023-08-01T08:52:32;98195.97;;;24.26
77355;BMP280;66422;51.202;19.936;2023-08-01T09:07:55;98191.36;;;24.40
77355;BMP280;66422;51.202;19.936;2023-08-01T09:23:16;98205.73;;;24.58
77355;BMP280;66422;51.202;19.936;2023-08-01T09:38:37;98202.41;;;23.62
77355;BMP280;66422;51.202;19.936;2023-08-01T09:53:57;98199.59;;;22.11
77355;BMP280;66422;51.202;19.936;2023-08-01T10:09:17;98191.95;;;22.50
77355;BMP280;66422;51.202;19.936;2023-08-01T10:24:38;98164.65;;;22.61
77355;BMP280;66422;51.202;19.936;2023-08-01T10:40:01;98132.19;;;22.37
77355;BMP280;66422;51.202;19.936;2023-08-01T10:55:22;98119.62;;;22.75
77355;BMP280;66422;51.202;19.936;2023-08-01T11:10:49;98097.66;;;23.49
77355;BMP280;66422;51.202;19.936;2023-08-01T11:26:10;98083.95;;;23.94
77355;BMP280;66422;51.202;19.936;2023-08-01T11:41:30;98069.26;;;25.06
77355;BMP280;66422;51.202;19.936;2023-08-01T11:57:00;98065.88;;;24.91
77355;BMP280;66422;51.202;19.936;2023-08-01T12:12:20;98091.25;;;24.43
77355;BMP280;66422;51.202;19.936;2023-08-01T12:27:39;98084.20;;;23.49
77355;BMP280;66422;51.202;19.936;2023-08-01T12:42:59;98062.68;;;24.29
77355;BMP280;66422;51.202;19.936;2023-08-01T12:58:19;98036.54;;;23.62
77355;BMP280;66422;51.202;19.936;2023-08-01T13:13:41;98038.59;;;22.65
77355;BMP280;66422;51.202;19.936;2023-08-01T13:29:01;98036.76;;;22.29
77355;BMP280;66422;51.202;19.936;2023-08-01T13:44:21;98038.14;;;22.12
77355;BMP280;66422;51.202;19.936;2023-08-01T13:59:40;98043.36;;;23.12
77355;BMP280;66422;51.202;19.936;2023-08-01T14:15:00;98019.59;;;22.30
77355;BMP280;66422;51.202;19.936;2023-08-01T14:30:19;98010.52;;;22.29
77355;BMP280;66422;51.202;19.936;2023-08-01T14:45:40;97976.48;;;22.43
77355;BMP280;66422;51.202;19.936;2023-08-01T15:00:59;97977.80;;;22.38
77355;BMP280;66422;51.202;19.936;2023-08-01T15:16:19;97980.17;;;22.00
77355;BMP280;66422;51.202;19.936;2023-08-01T15:31:39;97997.36;;;22.96
77355;BMP280;66422;51.202;19.936;2023-08-01T15:46:59;97994.15;;;22.44
77355;BMP280;66422;51.202;19.936;2023-08-01T16:02:19;97998.22;;;22.01
77355;BMP280;66422;51.202;19.936;2023-08-01T16:17:39;98010.36;;;22.12
77355;BMP280;66422;51.202;19.936;2023-08-01T16:32:59;98027.14;;;21.86
77355;BMP280;66422;51.202;19.936;2023-08-01T16:48:19;98027.28;;;21.63
77355;BMP280;66422;51.202;19.936;2023-08-01T17:03:39;98027.05;;;21.55
77355;BMP280;66422;51.202;19.936;2023-08-01T17:18:58;98031.73;;;21.08
77355;BMP280;66422;51.202;19.936;2023-08-01T17:34:18;98041.92;;;21.09
77355;BMP280;66422;51.202;19.936;2023-08-01T17:49:38;98037.03;;;20.91
77355;BMP280;66422;51.202;19.936;2023-08-01T18:04:57;98059.02;;;20.69
77355;BMP280;66422;51.202;19.936;2023-08-01T18:20:17;98064.22;;;20.36
77355;BMP280;66422;51.202;19.936;2023-08-01T18:35:40;98052.73;;;20.25
77355;BMP280;66422;51.202;19.936;2023-08-01T18:51:09;98068.50;;;19.81
77355;BMP280;66422;51.202;19.936;2023-08-01T19:06:30;98094.29;;;19.71
77355;BMP280;66422;51.202;19.936;2023-08-01T19:21:50;98108.21;;;19.53
77355;BMP280;66422;51.202;19.936;2023-08-01T19:37:09;98109.48;;;19.66
77355;BMP280;66422;51.202;19.936;2023-08-01T19:52:30;98111.89;;;19.47
77355;BMP280;66422;51.202;19.936;2023-08-01T20:07:55;98120.08;;;19.51
77355;BMP280;66422;51.202;19.936;2023-08-01T20:23:14;98126.56;;;19.22
77355;BMP280;66422;51.202;19.936;2023-08-01T20:38:34;98125.35;;;19.21
77355;BMP280;66422;51.202;19.936;2023-08-01T20:53:53;98107.38;;;19.29
77355;BMP280;66422;51.202;19.936;2023-08-01T21:09:13;98111.30;;;19.30
77355;BMP280;66422;51.202;19.936;2023-08-01T21:24:33;98088.88;;;19.31
77355;BMP280;66422;51.202;19.936;2023-08-01T21:39:53;98128.17;;;19.16
77355;BMP280;66422;51.202;19.936;2023-08-01T21:55:12;98131.94;;;18.99
77355;BMP280;66422;51.202;19.936;2023-08-01T22:10:33;98149.79;;;19.01
77355;BMP280;66422;51.202;19.936;2023-08-01T22:25:52;98153.86;;;19.02
77355;BMP280;66422;51.202;19.936;2023-08-01T22:41:18;98156.94;;;18.92
77355;BMP280;66422;51.202;19.936;2023-08-01T22:56:38;98180.57;;;18.82
77355;BMP280;66422;51.202;19.936;2023-08-01T23:11:57;98159.20;;;18.84
77355;BMP280;66422;51.202;19.936;2023-08-01T23:27:17;98164.25;;;18.95
77355;BMP280;66422;51.202;19.936;2023-08-01T23:42:36;98170.07;;;19.06
77355;BMP280;66422;51.202;19.936;2023-08-01T23:57:56;98179.73;;;18.78
